Time;durP1;ratioP1;P1;durP2;ratioP2;P2;SDS_P1;SDS_P2;PMS_P1;PMS_P2;Temp;Humidity;BMP_temperature;BMP_pressure;BME280_temperature;BME280_humidity;BME280_pressure;Samples;Min_cycle;Max_cycle;Signal;HPM_P1;HPM_P2
2022/04/02 00:02:22;;;;;;;;;;;;;;;4.47;64.77;100698.69;5027050;28;19968;-74
2022/04/02 00:04:47;;;;;;;;;;;;;;;4.54;63.12;100697.88;5035296;28;19975;-80
2022/04/02 00:07:12;;;;;;;;;;;;;;;4.00;64.69;100699.34;5028391;28;20022;-80
2022/04/02 00:09:38;;;;;;;;;;;;;;;4.66;63.11;100697.91;5025470;28;20569;-80
2022/04/02 00:12:03;;;;;;;;;;;;;;;4.05;64.20;100697.69;5029426;28;19922;-79
2022/04/02 00:14:29;;;;;;;;;;;;;;;4.56;63.08;100696.16;5026118;28;19921;-80
2022/04/02 00:16:54;;;;;;;;;;;;;;;4.36;64.49;100703.81;5026476;28;19984;-80
2022/04/02 00:19:20;;;;;;;;;;;;;;;4.20;64.10;100702.91;5029938;28;19921;-80
2022/04/02 00:21:46;;;;;;;;;;;;;;;4.81;63.58;100697.91;5023211;28;19921;-80
2022/04/02 00:24:11;;;;;;;;;;;;;;;4.58;63.02;100703.03;5027326;28;19971;-78
2022/04/02 00:26:36;;;;;;;;;;;;;;;4.71;62.64;100703.91;5025319;28;20518;-75
2022/04/02 00:29:02;;;;;;;;;;;;;;;4.35;65.00;100704.66;5023735;28;19960;-77
2022/04/02 00:31:31;;;;;;;;;;;;;;;4.72;62.40;100713.34;5028024;28;19928;-78
2022/04/02 00:33:57;;;;;;;;;;;;;;;4.03;64.95;100708.78;5031329;28;19925;-74
2022/04/02 00:36:23;;;;;;;;;;;;;;;4.09;65.58;100714.84;5026627;28;19932;-80
2022/04/02 00:38:48;;;;;;;;;;;;;;;3.98;64.16;100713.06;5028279;28;20002;-80
2022/04/02 00:41:15;;;;;;;;;;;;;;;4.29;64.28;100713.22;5025038;28;19913;-80
2022/04/02 00:43:53;;;;;;;;;;;;;;;4.65;62.83;100716.75;5027931;28;19928;-80
2022/04/02 00:46:18;;;;;;;;;;;;;;;4.48;64.17;100711.56;5028826;28;19971;-80
2022/04/02 00:48:43;;;;;;;;;;;;;;;4.42;62.43;100711.56;5025213;28;19921;-80
2022/04/02 00:51:12;;;;;;;;;;;;;;;4.36;64.20;100716.69;5025939;28;20291;-80
2022/04/02 00:53:41;;;;;;;;;;;;;;;4.29;63.74;100714.94;5027555;28;20018;-80
2022/04/02 00:56:06;;;;;;;;;;;;;;;4.25;64.08;100718.34;5024329;28;20004;-78
2022/04/02 00:58:32;;;;;;;;;;;;;;;4.38;63.95;100720.09;5027367;28;20023;-78
2022/04/02 01:00:57;;;;;;;;;;;;;;;3.94;65.57;100719.03;5027110;28;19921;-78
2022/04/02 01:03:23;;;;;;;;;;;;;;;4.46;62.95;100715.00;5024946;28;19992;-78
2022/04/02 01:05:49;;;;;;;;;;;;;;;4.38;63.60;100712.38;5033106;28;20404;-78
2022/04/02 01:08:14;;;;;;;;;;;;;;;4.21;63.37;100714.91;5020498;28;19913;-78
2022/04/02 01:10:39;;;;;;;;;;;;;;;4.82;60.97;100715.91;5024623;28;19956;-78
2022/04/02 01:13:05;;;;;;;;;;;;;;;4.75;61.96;100719.34;5042225;28;19925;-74
2022/04/02 01:15:30;;;;;;;;;;;;;;;4.25;63.84;100732.06;5027768;28;19939;-75
2022/04/02 01:17:56;;;;;;;;;;;;;;;4.13;63.13;100724.31;5035468;28;19920;-78
2022/04/02 01:20:22;;;;;;;;;;;;;;;4.76;62.86;100721.06;5026594;28;19913;-77
2022/04/02 01:22:48;;;;;;;;;;;;;;;3.98;65.20;100725.91;5032081;28;19921;-80
2022/04/02 01:25:13;;;;;;;;;;;;;;;4.54;63.12;100732.16;5026503;28;19932;-80
2022/04/02 01:27:38;;;;;;;;;;;;;;;4.29;64.34;100733.78;5030103;28;19925;-80
2022/04/02 01:30:05;;;;;;;;;;;;;;;3.97;65.67;100740.47;5028720;28;20333;-79
2022/04/02 01:32:31;;;;;;;;;;;;;;;4.62;62.23;100722.75;5031486;28;20927;-79
2022/04/02 01:34:56;;;;;;;;;;;;;;;4.61;63.65;100728.78;5024449;28;20007;-78
2022/04/02 01:37:21;;;;;;;;;;;;;;;4.71;63.01;100721.91;5031847;28;19927;-78
2022/04/02 01:39:47;;;;;;;;;;;;;;;4.72;62.37;100726.22;5033008;28;20337;-79
2022/04/02 01:42:13;;;;;;;;;;;;;;;4.76;62.13;100733.09;5023038;28;19937;-75
2022/04/02 01:44:41;;;;;;;;;;;;;;;4.66;63.07;100734.78;5024211;28;19921;-75
2022/04/02 01:47:06;;;;;;;;;;;;;;;4.92;63.08;100734.81;5027307;28;19919;-75
2022/04/02 01:49:31;;;;;;;;;;;;;;;4.98;61.97;100734.81;5031222;28;20328;-75
2022/04/02 01:51:57;;;;;;;;;;;;;;;4.13;63.61;100750.03;5024281;28;19921;-80
2022/04/02 01:54:22;;;;;;;;;;;;;;;4.79;63.08;100735.66;5029640;28;19936;-80
2022/04/02 01:56:48;;;;;;;;;;;;;;;4.28;64.71;100744.94;5034735;28;19924;-78
2022/04/02 01:59:13;;;;;;;;;;;;;;;4.20;64.54;100743.16;5013763;28;19925;-75
2022/04/02 02:01:38;;;;;;;;;;;;;;;4.83;62.15;100733.09;5028460;28;19963;-77
2022/04/02 02:04:04;;;;;;;;;;;;;;;4.58;62.45;100741.63;5029830;28;19972;-80
2022/04/02 02:06:30;;;;;;;;;;;;;;;4.58;62.80;100733.03;5024447;28;19967;-80
2022/04/02 02:08:55;;;;;;;;;;;;;;;4.55;62.31;100736.47;5025234;28;19929;-80
2022/04/02 02:11:21;;;;;;;;;;;;;;;4.70;62.48;100731.34;5008461;28;19921;-78
2022/04/02 02:13:46;;;;;;;;;;;;;;;4.67;62.12;100741.63;5008444;28;19961;-75
2022/04/02 02:16:12;;;;;;;;;;;;;;;4.26;63.62;100740.63;5040581;28;19932;-75
2022/04/02 02:18:37;;;;;;;;;;;;;;;4.14;65.25;100751.72;5025196;28;19921;-75
2022/04/02 02:21:02;;;;;;;;;;;;;;;4.79;61.94;100744.22;5024956;28;19921;-78
2022/04/02 02:23:28;;;;;;;;;;;;;;;4.38;63.81;100742.41;5029179;28;19921;-78
2022/04/02 02:25:53;;;;;;;;;;;;;;;4.57;63.31;100750.19;5030385;28;19921;-78
2022/04/02 02:28:18;;;;;;;;;;;;;;;4.25;64.22;100750.06;5033823;28;20320;-75
2022/04/02 02:30:43;;;;;;;;;;;;;;;4.41;63.69;100745.84;5031123;28;19928;-80
2022/04/02 02:35:53;;;;;;;;;;;;;;;4.25;63.33;100742.38;5027650;28;19960;-80
2022/04/02 02:38:20;;;;;;;;;;;;;;;4.50;62.40;100745.88;5039774;28;19925;-78
2022/04/02 02:40:46;;;;;;;;;;;;;;;4.58;63.41;100744.19;5029946;28;20016;-77
2022/04/02 02:43:12;;;;;;;;;;;;;;;4.34;63.61;100751.81;5025149;28;19925;-77
2022/04/02 02:45:37;;;;;;;;;;;;;;;4.01;63.83;100757.63;5029085;28;19977;-77
2022/04/02 02:48:04;;;;;;;;;;;;;;;4.25;63.91;100749.22;5028113;28;20023;-80
2022/04/02 02:50:29;;;;;;;;;;;;;;;4.16;63.78;100755.19;5033085;28;19973;-79
2022/04/02 02:52:55;;;;;;;;;;;;;;;4.22;63.62;100752.63;5034642;28;19994;-78
2022/04/02 02:55:20;;;;;;;;;;;;;;;4.18;64.12;100752.59;5026025;28;19929;-78
2022/04/02 02:57:46;;;;;;;;;;;;;;;4.14;64.17;100754.28;5015884;28;19922;-78
2022/04/02 03:00:13;;;;;;;;;;;;;;;3.95;64.58;100756.72;5028471;28;19971;-77
2022/04/02 03:02:38;;;;;;;;;;;;;;;4.24;63.77;100763.78;5051935;28;19913;-79
2022/04/02 03:05:10;;;;;;;;;;;;;;;4.27;63.12;100755.22;5027048;28;19924;-78
2022/04/02 03:07:41;;;;;;;;;;;;;;;3.60;64.74;100764.22;5021137;28;19929;-80
2022/04/02 03:10:07;;;;;;;;;;;;;;;4.08;63.63;100761.13;5022958;28;19991;-80
2022/04/02 03:12:32;;;;;;;;;;;;;;;3.52;65.29;100763.28;5018490;28;20433;-80
2022/04/02 03:14:59;;;;;;;;;;;;;;;4.36;63.17;100760.41;5022303;28;19926;-80
2022/04/02 03:17:24;;;;;;;;;;;;;;;4.05;63.31;100768.78;5019815;28;20055;-78
2022/04/02 03:19:50;;;;;;;;;;;;;;;3.91;65.07;100772.97;5018542;28;20012;-78
2022/04/02 03:22:15;;;;;;;;;;;;;;;4.50;62.64;100778.44;5024507;28;19921;-75
2022/04/02 03:24:40;;;;;;;;;;;;;;;3.98;64.17;100778.19;5041966;28;20374;-78
2022/04/02 03:27:05;;;;;;;;;;;;;;;4.40;61.58;100776.69;5044484;28;19921;-80
2022/04/02 03:29:31;;;;;;;;;;;;;;;3.59;64.13;100785.59;5030690;28;20051;-81
2022/04/02 03:31:56;;;;;;;;;;;;;;;4.15;63.38;100783.44;5025277;28;19922;-80
2022/04/02 03:34:21;;;;;;;;;;;;;;;4.11;64.01;100785.13;5063286;28;19952;-80
2022/04/02 03:36:47;;;;;;;;;;;;;;;4.65;62.61;100792.22;5036432;28;19924;-80
2022/04/02 03:39:13;;;;;;;;;;;;;;;4.25;62.24;100795.50;5037640;28;20011;-78
2022/04/02 03:41:39;;;;;;;;;;;;;;;3.92;64.11;100796.13;5028497;28;19959;-78
2022/04/02 03:44:05;;;;;;;;;;;;;;;4.34;63.36;100790.41;5021661;28;19917;-74
2022/04/02 03:49:14;;;;;;;;;;;;;;;4.24;62.82;100784.34;5029398;28;19928;-74
2022/04/02 03:51:39;;;;;;;;;;;;;;;4.29;63.75;100792.94;5039946;28;20321;-77
2022/04/02 03:54:05;;;;;;;;;;;;;;;4.43;61.91;100792.16;5034825;28;19939;-77
2022/04/02 03:56:30;;;;;;;;;;;;;;;4.43;62.70;100789.56;5027729;28;19990;-77
2022/04/02 03:58:55;;;;;;;;;;;;;;;4.12;63.56;100799.69;5024036;28;19958;-77
2022/04/02 04:01:20;;;;;;;;;;;;;;;3.41;65.44;100804.31;5029751;28;19925;-78
2022/04/02 04:03:46;;;;;;;;;;;;;;;4.25;62.90;100803.22;5026124;28;20394;-77
2022/04/02 04:06:11;;;;;;;;;;;;;;;3.73;65.79;100809.69;5030188;28;19921;-77
2022/04/02 04:08:37;;;;;;;;;;;;;;;4.39;63.29;100806.69;5031776;28;20381;-78
2022/04/02 04:11:02;;;;;;;;;;;;;;;4.55;63.10;100800.78;5026079;28;20007;-80
2022/04/02 04:13:28;;;;;;;;;;;;;;;4.52;62.42;100807.63;5027631;28;20405;-79
2022/04/02 04:15:53;;;;;;;;;;;;;;;4.34;62.96;100803.25;5024114;28;20278;-79
2022/04/02 04:18:18;;;;;;;;;;;;;;;3.74;65.89;100814.84;5018842;28;19922;-79
2022/04/02 04:20:43;;;;;;;;;;;;;;;4.29;63.19;100813.50;5035333;28;20090;-78
2022/04/02 04:23:09;;;;;;;;;;;;;;;4.70;61.41;100810.28;5023746;28;20428;-79
2022/04/02 04:25:34;;;;;;;;;;;;;;;4.87;61.01;100822.34;5028056;28;20023;-79
2022/04/02 04:28:01;;;;;;;;;;;;;;;4.81;61.25;100818.88;5026163;28;19928;-79
2022/04/02 04:30:27;;;;;;;;;;;;;;;4.34;62.63;100821.25;5031118;28;20377;-75
2022/04/02 04:32:52;;;;;;;;;;;;;;;3.79;65.23;100832.84;5029193;28;19925;-75
2022/04/02 04:35:19;;;;;;;;;;;;;;;4.16;63.99;100829.72;5022821;28;20425;-75
2022/04/02 04:37:44;;;;;;;;;;;;;;;4.61;61.83;100818.81;5023403;28;20630;-75
2022/04/02 04:40:10;;;;;;;;;;;;;;;3.87;63.62;100832.94;5016978;28;19925;-77
2022/04/02 04:42:35;;;;;;;;;;;;;;;4.14;63.01;100828.84;5021557;28;19932;-78
2022/04/02 04:45:00;;;;;;;;;;;;;;;3.95;63.86;100832.13;5029987;28;19929;-78
2022/04/02 04:47:26;;;;;;;;;;;;;;;4.45;62.13;100829.00;5024044;28;19994;-78
2022/04/02 04:49:51;;;;;;;;;;;;;;;3.72;63.58;100837.06;5024729;28;20068;-80
2022/04/02 04:52:16;;;;;;;;;;;;;;;3.90;63.72;100848.38;5024989;28;20610;-79
2022/04/02 04:54:41;;;;;;;;;;;;;;;3.47;63.90;100845.44;5020652;28;19940;-79
2022/04/02 04:57:07;;;;;;;;;;;;;;;4.18;62.44;100842.56;5030801;28;20337;-79
2022/04/02 04:59:32;;;;;;;;;;;;;;;3.85;64.02;100852.59;5027812;28;19925;-78
2022/04/02 05:01:57;;;;;;;;;;;;;;;3.54;63.47;100847.22;5026611;28;19917;-78
2022/04/02 05:04:23;;;;;;;;;;;;;;;3.58;64.98;100853.22;5026440;28;19922;-80
2022/04/02 05:06:49;;;;;;;;;;;;;;;4.07;63.17;100854.50;5025791;28;20392;-80
2022/04/02 05:09:14;;;;;;;;;;;;;;;3.84;63.18;100856.03;5024392;28;20518;-80
2022/04/02 05:11:40;;;;;;;;;;;;;;;4.24;61.70;100851.19;5018491;28;19921;-80
2022/04/02 05:14:05;;;;;;;;;;;;;;;3.83;63.40;100859.44;5026182;28;19925;-80
2022/04/02 05:16:30;;;;;;;;;;;;;;;3.60;63.77;100862.69;5025918;28;20576;-81
2022/04/02 05:18:56;;;;;;;;;;;;;;;3.92;62.84;100856.94;5024223;28;20370;-80
2022/04/02 05:21:21;;;;;;;;;;;;;;;4.06;61.94;100863.94;5025218;28;19928;-80
2022/04/02 05:23:46;;;;;;;;;;;;;;;3.76;62.74;100869.66;5020115;28;19918;-80
2022/04/02 05:26:12;;;;;;;;;;;;;;;4.18;62.80;100868.28;5026462;28;20377;-79
2022/04/02 05:28:37;;;;;;;;;;;;;;;4.24;62.01;100865.75;5023694;28;19921;-78
2022/04/02 05:31:03;;;;;;;;;;;;;;;3.90;62.81;100871.50;5028809;28;20164;-77
2022/04/02 05:33:30;;;;;;;;;;;;;;;3.72;62.61;100888.47;5021212;28;19932;-77
2022/04/02 05:35:55;;;;;;;;;;;;;;;3.60;63.54;100879.81;5032155;28;19920;-77
2022/04/02 05:38:20;;;;;;;;;;;;;;;4.17;61.40;100887.13;5040995;28;19921;-78
2022/04/02 05:40:46;;;;;;;;;;;;;;;3.97;61.55;100891.22;5026585;28;19948;-78
2022/04/02 05:43:11;;;;;;;;;;;;;;;4.17;61.28;100893.13;5034441;28;19921;-75
2022/04/02 05:45:36;;;;;;;;;;;;;;;3.99;61.50;100902.41;5024677;28;19932;-78
2022/04/02 05:48:02;;;;;;;;;;;;;;;3.85;61.49;100901.41;5027343;28;19921;-78
2022/04/02 05:50:27;;;;;;;;;;;;;;;3.54;62.14;100908.00;5029093;28;19925;-79
2022/04/02 05:52:52;;;;;;;;;;;;;;;3.58;64.03;100915.72;5028729;28;19932;-78
2022/04/02 05:55:18;;;;;;;;;;;;;;;4.20;61.59;100913.72;5030886;28;19925;-80
2022/04/02 05:57:44;;;;;;;;;;;;;;;3.69;61.56;100916.69;5028523;28;20000;-80
2022/04/02 06:00:11;;;;;;;;;;;;;;;4.09;60.26;100922.22;5026832;28;19956;-75
2022/04/02 06:02:37;;;;;;;;;;;;;;;4.14;60.94;100920.56;5025364;28;20006;-75
2022/04/02 06:05:02;;;;;;;;;;;;;;;3.75;61.74;100928.75;5026662;28;19940;-80
2022/04/02 06:07:27;;;;;;;;;;;;;;;4.15;61.16;100927.41;5025026;28;19921;-80
2022/04/02 06:09:53;;;;;;;;;;;;;;;3.47;61.27;100942.16;5023710;28;19929;-81
2022/04/02 06:12:18;;;;;;;;;;;;;;;4.05;60.47;100943.59;5026287;28;20498;-75
2022/04/02 06:14:44;;;;;;;;;;;;;;;3.63;60.90;100939.75;5023223;28;19931;-78
2022/04/02 06:17:09;;;;;;;;;;;;;;;4.27;59.32;100942.91;5022130;28;20275;-80
2022/04/02 06:19:34;;;;;;;;;;;;;;;4.49;60.26;100943.94;5020092;28;19931;-77
2022/04/02 06:21:59;;;;;;;;;;;;;;;3.98;60.97;100944.38;5028754;28;19921;-78
2022/04/02 06:24:25;;;;;;;;;;;;;;;4.03;61.29;100950.41;5027341;28;20017;-78
2022/04/02 06:26:50;;;;;;;;;;;;;;;4.06;61.44;100953.03;5027439;28;19917;-79
2022/04/02 06:29:15;;;;;;;;;;;;;;;4.24;59.89;100956.63;5030343;28;20393;-75
2022/04/02 06:31:40;;;;;;;;;;;;;;;3.38;61.82;100967.72;5029197;28;20435;-75
2022/04/02 06:34:06;;;;;;;;;;;;;;;3.92;61.84;100970.00;5030381;28;19925;-81
2022/04/02 06:36:31;;;;;;;;;;;;;;;4.33;58.31;100969.53;5028268;28;19982;-81
2022/04/02 06:38:57;;;;;;;;;;;;;;;3.84;62.11;100976.78;5028544;28;20367;-77
2022/04/02 06:41:22;;;;;;;;;;;;;;;4.52;58.71;100975.69;5034530;28;19928;-77
2022/04/02 06:43:48;;;;;;;;;;;;;;;3.72;61.36;100980.94;5022044;28;20001;-81
2022/04/02 06:46:13;;;;;;;;;;;;;;;4.29;59.77;100980.66;5026675;28;19921;-80
2022/04/02 06:48:38;;;;;;;;;;;;;;;4.11;60.46;100987.38;5027702;28;19921;-81
2022/04/02 06:51:06;;;;;;;;;;;;;;;4.51;59.69;100991.97;5025684;28;19917;-81
2022/04/02 06:53:31;;;;;;;;;;;;;;;3.88;60.83;100997.38;5026081;28;19925;-80
2022/04/02 06:55:57;;;;;;;;;;;;;;;4.10;60.18;100998.50;5034510;28;19940;-80
2022/04/02 06:58:32;;;;;;;;;;;;;;;3.95;60.87;101001.75;5028404;28;19925;-81
2022/04/02 07:00:58;;;;;;;;;;;;;;;4.18;59.38;100987.41;5032689;28;19948;-80
2022/04/02 07:03:23;;;;;;;;;;;;;;;4.49;59.13;100998.81;5032347;28;20027;-75
2022/04/02 07:05:49;;;;;;;;;;;;;;;4.99;59.04;100993.13;5030435;28;20378;-77
2022/04/02 07:08:14;;;;;;;;;;;;;;;4.51;59.97;101007.41;5024618;28;21563;-77
2022/04/02 07:10:39;;;;;;;;;;;;;;;4.70;58.69;101000.69;5030206;28;20007;-80
2022/04/02 07:13:05;;;;;;;;;;;;;;;4.45;59.24;101003.91;5028904;28;19933;-75
2022/04/02 07:15:30;;;;;;;;;;;;;;;3.92;61.17;101009.44;5028313;28;19955;-77
2022/04/02 07:17:55;;;;;;;;;;;;;;;4.55;58.50;101003.16;5032181;28;20447;-77
2022/04/02 07:20:26;;;;;;;;;;;;;;;4.47;58.19;101002.19;5038008;28;19917;-75
2022/04/02 07:22:52;;;;;;;;;;;;;;;4.49;59.63;101011.69;5030608;28;19921;-75
2022/04/02 07:25:19;;;;;;;;;;;;;;;4.51;59.20;101011.69;5026032;28;20465;-75
2022/04/02 07:27:44;;;;;;;;;;;;;;;4.36;57.53;101007.28;5025758;28;19967;-77
2022/04/02 07:30:11;;;;;;;;;;;;;;;4.29;58.85;101010.63;5031711;28;19920;-77
2022/04/02 07:32:36;;;;;;;;;;;;;;;4.38;59.05;101015.03;5022488;28;19941;-77
2022/04/02 07:35:01;;;;;;;;;;;;;;;4.60;57.43;101019.47;5013533;28;19933;-80
2022/04/02 07:37:27;;;;;;;;;;;;;;;4.49;58.33;101028.81;5023795;28;20010;-81
2022/04/02 07:40:10;;;;;;;;;;;;;;;4.68;56.58;101023.81;5032434;28;19932;-75
2022/04/02 07:42:54;;;;;;;;;;;;;;;4.54;56.54;101027.13;5030225;28;20584;-75
2022/04/02 07:45:26;;;;;;;;;;;;;;;4.00;58.65;101037.75;5030282;28;19921;-80
2022/04/02 07:47:56;;;;;;;;;;;;;;;4.73;56.97;101037.56;5022035;28;19933;-80
2022/04/02 07:50:22;;;;;;;;;;;;;;;4.97;55.61;101033.44;5029553;28;20449;-77
2022/04/02 07:52:49;;;;;;;;;;;;;;;4.33;57.40;101038.97;5027057;28;20155;-77
2022/04/02 07:55:17;;;;;;;;;;;;;;;4.87;54.70;101040.25;5033362;28;20004;-81
2022/04/02 07:57:44;;;;;;;;;;;;;;;4.75;54.43;101038.44;5032867;28;20296;-77
2022/04/02 08:00:10;;;;;;;;;;;;;;;4.58;55.38;101034.91;5030654;28;19929;-80
2022/04/02 08:02:37;;;;;;;;;;;;;;;4.69;55.29;101047.84;5044495;28;19917;-80
2022/04/02 08:05:04;;;;;;;;;;;;;;;4.61;55.30;101042.66;5025585;28;19922;-76
2022/04/02 08:07:33;;;;;;;;;;;;;;;4.66;54.54;101048.69;5034552;28;19921;-77
2022/04/02 08:09:59;;;;;;;;;;;;;;;4.29;54.88;101051.78;5026857;28;20020;-77
2022/04/02 08:12:25;;;;;;;;;;;;;;;4.02;55.05;101052.34;5042135;28;20008;-77
2022/04/02 08:14:51;;;;;;;;;;;;;;;3.97;54.74;101051.44;5027949;28;20004;-77
2022/04/02 08:17:16;;;;;;;;;;;;;;;4.36;55.32;101056.16;5029712;28;19944;-76
2022/04/02 08:19:41;;;;;;;;;;;;;;;4.47;55.81;101059.66;5026865;28;19921;-80
2022/04/02 08:22:06;;;;;;;;;;;;;;;4.22;55.57;101058.59;5026221;28;19940;-80
2022/04/02 08:24:32;;;;;;;;;;;;;;;4.09;54.73;101055.88;5025081;28;19971;-80
2022/04/02 08:27:01;;;;;;;;;;;;;;;4.58;54.58;101068.34;5028807;28;19940;-80
2022/04/02 08:29:30;;;;;;;;;;;;;;;4.83;53.37;101065.09;5030413;28;19924;-75
2022/04/02 08:31:59;;;;;;;;;;;;;;;5.02;54.48;101065.22;5024001;28;20538;-77
2022/04/02 08:34:24;;;;;;;;;;;;;;;5.12;51.35;101082.47;5024394;28;20576;-76
2022/04/02 08:37:03;;;;;;;;;;;;;;;4.43;52.99;101077.63;5030805;28;20378;-81
2022/04/02 08:39:28;;;;;;;;;;;;;;;4.14;54.47;101082.53;5029020;28;19928;-81
2022/04/02 08:41:57;;;;;;;;;;;;;;;4.39;54.22;101081.88;5030033;28;19921;-78
2022/04/02 08:44:25;;;;;;;;;;;;;;;4.71;54.56;101090.75;5028783;28;19917;-80
2022/04/02 08:47:10;;;;;;;;;;;;;;;4.80;55.06;101090.81;5023839;28;19921;-81
2022/04/02 08:49:36;;;;;;;;;;;;;;;4.47;54.23;101095.66;5024900;28;20274;-80
2022/04/02 08:52:01;;;;;;;;;;;;;;;4.47;53.75;101094.81;5024843;28;19971;-77
2022/04/02 08:54:27;;;;;;;;;;;;;;;4.57;53.18;101092.34;5030267;28;19951;-77
2022/04/02 08:56:59;;;;;;;;;;;;;;;4.57;53.44;101094.91;5029268;28;19967;-80
2022/04/02 08:59:31;;;;;;;;;;;;;;;4.76;52.10;101095.94;5030543;28;20304;-80
2022/04/02 09:02:19;;;;;;;;;;;;;;;4.49;52.87;101106.00;5021077;28;20000;-80
2022/04/02 09:04:44;;;;;;;;;;;;;;;5.00;54.23;101103.81;5037589;28;19921;-76
2022/04/02 09:07:09;;;;;;;;;;;;;;;4.83;53.71;101111.44;5052010;28;19936;-76
2022/04/02 09:09:58;;;;;;;;;;;;;;;4.90;53.91;101112.34;5029265;28;20446;-76
2022/04/02 09:12:42;;;;;;;;;;;;;;;5.27;52.75;101108.28;5022840;28;19925;-77
2022/04/02 09:15:12;;;;;;;;;;;;;;;5.05;53.57;101109.00;5028506;28;19928;-77
2022/04/02 09:17:56;;;;;;;;;;;;;;;4.89;54.03;101121.78;5027044;28;19925;-76
2022/04/02 09:20:40;;;;;;;;;;;;;;;5.05;52.80;101116.75;5027352;28;19932;-77
2022/04/02 09:23:07;;;;;;;;;;;;;;;4.88;52.23;101124.34;5022414;28;19944;-77
2022/04/02 09:25:41;;;;;;;;;;;;;;;4.66;51.14;101133.59;5028827;28;20010;-77
2022/04/02 09:28:10;;;;;;;;;;;;;;;5.09;53.38;101137.34;5026691;28;19921;-75
2022/04/02 09:30:42;;;;;;;;;;;;;;;5.46;53.12;101133.31;5028332;28;20633;-76
2022/04/02 09:33:13;;;;;;;;;;;;;;;5.29;51.90;101140.94;5025085;28;19925;-76
2022/04/02 09:35:38;;;;;;;;;;;;;;;4.99;53.56;101150.16;5025415;28;20520;-80
2022/04/02 09:38:19;;;;;;;;;;;;;;;4.85;52.52;101144.91;5040970;28;19910;-80
2022/04/02 09:40:48;;;;;;;;;;;;;;;5.11;51.41;101138.25;5025941;28;19921;-77
2022/04/02 09:43:26;;;;;;;;;;;;;;;4.85;53.73;101144.91;5023212;28;20401;-76
2022/04/02 09:46:01;;;;;;;;;;;;;;;5.44;52.16;101151.31;5029138;28;19927;-76
2022/04/02 09:48:30;;;;;;;;;;;;;;;5.23;51.56;101146.06;5036049;28;19982;-76
2022/04/02 09:50:56;;;;;;;;;;;;;;;5.35;51.95;101148.72;5030291;28;19925;-76
2022/04/02 09:53:22;;;;;;;;;;;;;;;5.02;50.13;101160.47;5025656;28;19917;-75
2022/04/02 09:55:51;;;;;;;;;;;;;;;5.28;50.45;101156.38;5031971;28;19976;-75
2022/04/02 09:58:35;;;;;;;;;;;;;;;5.60;50.44;101153.97;5025927;28;19921;-81
2022/04/02 10:01:05;;;;;;;;;;;;;;;5.24;50.96;101158.06;5029017;28;19928;-81
2022/04/02 10:03:49;;;;;;;;;;;;;;;5.47;50.04;101151.34;5028758;28;19940;-81
2022/04/02 10:06:20;;;;;;;;;;;;;;;5.83;50.11;101155.00;5029125;28;20308;-81
2022/04/02 10:08:51;;;;;;;;;;;;;;;5.72;48.94;101154.91;5028053;28;20452;-81
2022/04/02 10:11:18;;;;;;;;;;;;;;;5.54;50.88;101151.38;5032004;28;20041;-80
2022/04/02 10:13:44;;;;;;;;;;;;;;;5.86;50.42;101161.00;5029707;28;20416;-77
2022/04/02 10:16:11;;;;;;;;;;;;;;;5.97;49.30;101159.34;5028543;28;19921;-80
2022/04/02 10:18:38;;;;;;;;;;;;;;;5.91;50.79;101177.38;5028196;28;20416;-81
2022/04/02 10:21:06;;;;;;;;;;;;;;;5.75;48.57;101159.22;5029488;28;19934;-81
2022/04/02 10:23:35;;;;;;;;;;;;;;;5.69;48.92;101167.78;5031010;28;20377;-77
2022/04/02 10:26:07;;;;;;;;;;;;;;;5.91;49.70;101169.63;5030801;28;19983;-77
2022/04/02 10:28:33;;;;;;;;;;;;;;;5.90;49.87;101165.31;5033759;28;20306;-76
2022/04/02 10:31:00;;;;;;;;;;;;;;;5.59;48.89;101171.19;5032363;28;19925;-75
2022/04/02 10:33:28;;;;;;;;;;;;;;;5.63;48.18;101167.75;5022575;28;19972;-75
2022/04/02 10:35:55;;;;;;;;;;;;;;;5.60;48.86;101167.75;5031023;28;19930;-77
2022/04/02 10:38:31;;;;;;;;;;;;;;;5.37;48.56;101169.31;5061925;28;20393;-77
2022/04/02 10:40:57;;;;;;;;;;;;;;;5.92;48.37;101161.03;5030860;28;19963;-77
2022/04/02 10:43:29;;;;;;;;;;;;;;;5.58;47.90;101169.44;5026842;28;20337;-80
2022/04/02 10:45:56;;;;;;;;;;;;;;;5.58;47.71;101163.44;5030202;28;19921;-80
2022/04/02 10:48:42;;;;;;;;;;;;;;;5.89;48.25;101168.75;5025661;28;19921;-77
2022/04/02 10:51:12;;;;;;;;;;;;;;;5.89;47.40;101171.31;5021509;28;20386;-76
2022/04/02 10:53:41;;;;;;;;;;;;;;;5.55;47.77;101179.75;5031286;28;19925;-76
2022/04/02 10:56:14;;;;;;;;;;;;;;;5.67;48.02;101163.47;5036004;28;20040;-79
2022/04/02 10:58:42;;;;;;;;;;;;;;;5.62;46.88;101167.75;5029460;28;19921;-75
2022/04/02 11:01:10;;;;;;;;;;;;;;;6.12;47.18;101166.28;5024875;28;19927;-79
2022/04/02 11:03:39;;;;;;;;;;;;;;;5.26;47.33;101181.28;5031539;28;19928;-79
2022/04/02 11:06:05;;;;;;;;;;;;;;;5.51;47.96;101177.13;5023589;28;19948;-79
2022/04/02 11:08:31;;;;;;;;;;;;;;;5.86;48.50;101179.03;5027517;28;19921;-81
2022/04/02 11:10:57;;;;;;;;;;;;;;;6.03;46.31;101182.56;5023865;28;19967;-80
2022/04/02 11:13:29;;;;;;;;;;;;;;;6.03;46.55;101174.84;5026353;28;20360;-80
2022/04/02 11:15:55;;;;;;;;;;;;;;;5.84;45.92;101177.31;5039521;28;19987;-80
2022/04/02 11:18:20;;;;;;;;;;;;;;;5.67;48.18;101184.97;5016542;28;20409;-80
2022/04/02 11:20:50;;;;;;;;;;;;;;;5.94;44.92;101182.53;5027408;28;19921;-80
2022/04/02 11:23:34;;;;;;;;;;;;;;;6.17;46.24;101194.66;5025272;28;19920;-81
2022/04/02 11:26:02;;;;;;;;;;;;;;;5.90;46.73;101187.66;5029438;28;19921;-81
2022/04/02 11:28:36;;;;;;;;;;;;;;;5.95;45.57;101184.25;5023703;28;20369;-80
2022/04/02 11:31:03;;;;;;;;;;;;;;;5.64;45.51;101192.69;5026372;28;20294;-80
2022/04/02 11:33:30;;;;;;;;;;;;;;;5.90;45.33;101195.38;5028278;28;19932;-80
2022/04/02 11:36:03;;;;;;;;;;;;;;;5.96;45.95;101190.25;5035415;28;19917;-79
2022/04/02 11:38:34;;;;;;;;;;;;;;;5.88;47.18;101187.66;5016063;28;19953;-79
2022/04/02 11:40:59;;;;;;;;;;;;;;;5.99;45.17;101193.72;5031272;28;19917;-79
2022/04/02 11:43:33;;;;;;;;;;;;;;;6.10;46.16;101205.81;5029552;28;20522;-79
2022/04/02 11:45:59;;;;;;;;;;;;;;;6.06;45.65;101194.63;5030130;28;20004;-79
2022/04/02 11:48:28;;;;;;;;;;;;;;;5.89;47.12;101201.44;5024330;28;19928;-77
2022/04/02 11:50:55;;;;;;;;;;;;;;;6.22;46.81;101196.38;5027472;28;19921;-77
2022/04/02 11:53:28;;;;;;;;;;;;;;;6.36;45.07;101197.31;5033429;28;20020;-77
2022/04/02 11:55:53;;;;;;;;;;;;;;;6.52;45.44;101199.09;5024415;28;20399;-77
2022/04/02 11:58:19;;;;;;;;;;;;;;;6.46;45.16;101198.19;5028034;28;19921;-75
2022/04/02 12:00:44;;;;;;;;;;;;;;;6.18;45.55;101206.69;5027158;28;19961;-81
2022/04/02 12:03:22;;;;;;;;;;;;;;;6.15;45.79;101206.69;5030356;28;20297;-81
2022/04/02 12:05:48;;;;;;;;;;;;;;;6.31;44.32;101195.53;5029304;28;19921;-81
2022/04/02 12:08:30;;;;;;;;;;;;;;;6.31;43.09;101196.41;5033916;28;19929;-76
2022/04/02 12:10:56;;;;;;;;;;;;;;;6.33;43.61;101201.59;5062541;28;19922;-81
2022/04/02 12:13:21;;;;;;;;;;;;;;;6.15;44.12;101197.22;5030615;28;20008;-81
2022/04/02 12:16:01;;;;;;;;;;;;;;;6.22;45.62;101201.53;5031571;28;19921;-81
2022/04/02 12:18:27;;;;;;;;;;;;;;;6.38;45.47;101195.59;5024273;28;20378;-81
2022/04/02 12:21:00;;;;;;;;;;;;;;;5.82;44.65;101202.22;5025909;28;20446;-80
2022/04/02 12:23:25;;;;;;;;;;;;;;;6.34;44.55;101200.72;5026716;28;19975;-81
2022/04/02 12:25:54;;;;;;;;;;;;;;;6.31;44.20;101198.13;5027440;28;20361;-76
2022/04/02 12:28:20;;;;;;;;;;;;;;;6.04;44.63;101193.72;5025630;28;19927;-76
2022/04/02 12:30:48;;;;;;;;;;;;;;;6.25;42.93;101195.53;5029569;28;20012;-76
2022/04/02 12:33:32;;;;;;;;;;;;;;;6.47;45.03;101198.22;5018364;28;19925;-77
2022/04/02 12:35:58;;;;;;;;;;;;;;;6.57;45.32;101199.13;5033326;28;19944;-77
2022/04/02 12:38:28;;;;;;;;;;;;;;;6.34;43.10;101199.00;5028683;28;19979;-77
2022/04/02 12:40:56;;;;;;;;;;;;;;;6.41;43.76;101198.19;5023798;28;19929;-77
2022/04/02 12:43:26;;;;;;;;;;;;;;;5.95;44.02;101202.28;5027168;28;20386;-76
2022/04/02 12:45:52;;;;;;;;;;;;;;;6.39;45.03;101199.91;5028451;28;19921;-77
2022/04/02 12:48:17;;;;;;;;;;;;;;;6.23;44.07;101202.41;5023288;28;20397;-76
2022/04/02 12:50:55;;;;;;;;;;;;;;;6.32;44.92;101205.88;5022157;28;20413;-76
2022/04/02 12:53:27;;;;;;;;;;;;;;;6.50;43.78;101213.72;5016757;28;19928;-80
2022/04/02 12:55:52;;;;;;;;;;;;;;;6.52;44.86;101201.69;5031676;28;20519;-81